• Join FlightAware (Why Join?)
  • Login
  • US Flag 
11:47PM EST


 

Airport Tracker/Info


-or-


 

Live Flight TrackerFlight Track Log ✈ QLK114 ✈ 23-Aug-2013 ✈ YSSY / SYD - YCFS

Flight Track Log - Related Links

Times and Time Zones

All times are in EDT time to prevent confusion due to time zone crossing. See the QLK114 flight status page for this flight to view local times or setup timezone preferences in your user account.

Time Position Orientation Groundspeed Altitude Reporting Facility
EDT Latitude Longitude Course Direction KTS MPH feet Rate Location/Type
04:04AM -33.9495 151.1884 North 109 125 300  Level Aus ATC (RADAR)
04:04AM -33.9278 151.1892 North 130 150 1,400 1,620 Climbing Aus ATC (RADAR)
04:05AM -33.8907 151.1980 11° North 155 178 2,800 1,560 Climbing Aus ATC (RADAR)
04:06AM -33.8413 151.2093 11° North 187 215 4,500 1,200 Climbing Aus ATC (RADAR)
04:07AM -33.7982 151.2291 21° North 220 253 5,000 360 Climbing Aus ATC (RADAR)
04:07AM -33.7625 151.2525 29° Northeast 249 287 5,000  Level Aus ATC (RADAR)
04:08AM -33.7134 151.2823 27° Northeast 263 303 5,000 840 Level Aus ATC (RADAR)
04:09AM -33.6497 151.3210 27° Northeast 245 282 6,500 1,500 Climbing Aus ATC (RADAR)
04:10AM -33.5975 151.3524 27° Northeast 242 278 7,900 1,620 Climbing Aus ATC (RADAR)
04:11AM -33.5364 151.3883 26° Northeast 231 266 9,700 1,500 Climbing Aus ATC (RADAR)
04:12AM -33.4924 151.4157 27° Northeast 238 274 10,600 1,260 Climbing Aus ATC (RADAR)
04:12AM -33.4574 151.4370 27° Northeast 240 276 11,400 1,320 Climbing Aus ATC (RADAR)
04:13AM -33.4098 151.4662 27° Northeast 244 281 12,500 1,320 Climbing Aus ATC (RADAR)
04:14AM -33.3466 151.5038 26° Northeast 240 276 13,900 1,260 Climbing Aus ATC (RADAR)
04:15AM -33.2831 151.5418 27° Northeast 247 284 15,200 1,020 Climbing Aus ATC (RADAR)
04:16AM -33.2326 151.5724 27° Northeast 246 283 15,900 960 Climbing Aus ATC (RADAR)
04:17AM -33.1836 151.6016 26° Northeast 244 281 16,800 1,020 Climbing Aus ATC (RADAR)
04:18AM -33.1471 151.6235 27° Northeast 249 287 17,300 960 Climbing Aus ATC (RADAR)
04:18AM -33.1008 151.6511 27° Northeast 247 284 18,100 900 Climbing Aus ATC (RADAR)
04:19AM -33.0374 151.6892 27° Northeast 248 285 19,000 420 Climbing Aus ATC (RADAR)
04:20AM -32.9814 151.7228 27° Northeast 273 314 18,900 -60 Descending Aus ATC (RADAR)
04:21AM -32.9084 151.7656 26° Northeast 293 337 18,900  Level Aus ATC (RADAR)
04:22AM -32.8543 151.7978 27° Northeast 302 348 18,900  Level Aus ATC (RADAR)
04:22AM -32.8073 151.8261 27° Northeast 305 351 18,900  Level Aus ATC (RADAR)
04:23AM -32.7645 151.8505 26° Northeast 310 357 18,900 60 Level Aus ATC (RADAR)
04:24AM -32.7170 151.8770 25° Northeast 305 351 19,000 60 Climbing Aus ATC (RADAR)
04:24AM -32.6722 151.9021 25° Northeast 302 348 19,000 -60 Level Aus ATC (RADAR)
04:25AM -32.5858 151.9505 25° Northeast 301 346 18,900 -60 Descending Aus ATC (RADAR)
04:26AM -32.5158 151.9898 25° Northeast 303 349 18,900  Level Aus ATC (RADAR)
04:27AM -32.4625 152.0198 25° Northeast 302 348 18,900  Level Aus ATC (RADAR)
04:28AM -32.4178 152.0451 26° Northeast 303 349 18,900  Level Aus ATC (RADAR)
04:28AM -32.3729 152.0697 25° Northeast 302 348 18,900  Level Aus ATC (RADAR)
04:29AM -32.3175 152.0998 25° Northeast 303 349 18,900  Level Aus ATC (RADAR)
04:29AM -32.2726 152.1253 26° Northeast 306 352 18,900  Level Aus ATC (RADAR)
04:30AM -32.2050 152.1635 26° Northeast 308 354 18,900  Level Aus ATC (RADAR)
04:31AM -32.1222 152.2091 25° Northeast 312 359 19,000  Climbing Aus ATC (RADAR)
04:32AM -32.0638 152.2408 25° Northeast 306 352 19,000  Level Aus ATC (RADAR)
04:33AM -32.0191 152.2652 25° Northeast 303 349 19,000  Level Aus ATC (RADAR)
04:33AM -31.9620 152.2965 25° Northeast 302 348 19,000  Level Aus ATC (RADAR)
04:34AM -31.8851 152.3341 23° Northeast 298 343 19,000  Level Aus ATC (RADAR)
04:35AM -31.8200 152.3604 19° North 295 339 19,000  Level Aus ATC (RADAR)
04:36AM -31.7416 152.3935 20° North 299 344 19,000  Level Aus ATC (RADAR)
04:37AM -31.6832 152.4184 20° North 297 342 19,000  Level Aus ATC (RADAR)
04:38AM -31.6381 152.4381 20° North 297 342 19,000  Level Aus ATC (RADAR)
04:38AM -31.5795 152.4617 19° North 294 338 19,000  Level Aus ATC (RADAR)
04:39AM -31.5001 152.4963 20° North 294 338 19,000  Level Aus ATC (RADAR)
04:40AM -31.4193 152.5299 20° North 292 336 19,000  Level Aus ATC (RADAR)
04:41AM -31.3406 152.5632 20° North 291 335 19,000  Level Aus ATC (RADAR)
04:42AM -31.2723 152.5921 20° North 294 338 19,000  Level Aus ATC (RADAR)
04:43AM -31.2240 152.6118 19° North 294 338 19,000 -840 Level Aus ATC (RADAR)
04:44AM -31.1615 152.6387 20° North 301 346 17,900 -1,500 Descending Aus ATC (RADAR)
04:44AM -31.1143 152.6581 19° North 288 331 16,900 -1,620 Descending Aus ATC (RADAR)
04:45AM -31.0423 152.6876 19° North 284 327 15,400 -1,560 Descending Aus ATC (RADAR)
04:46AM -30.9685 152.7182 20° North 280 322 13,900 -1,440 Descending Aus ATC (RADAR)
04:47AM -30.9198 152.7378 19° North 279 321 13,000 -1,500 Descending Aus ATC (RADAR)
04:48AM -30.8738 152.7569 20° North 278 320 12,000 -1,560 Descending Aus ATC (RADAR)
04:48AM -30.8133 152.7821 20° North 291 335 10,800 -1,560 Descending Aus ATC (RADAR)
04:49AM -30.7401 152.8130 20° North 278 320 9,300 -1,440 Descending Aus ATC (RADAR)
04:50AM -30.6675 152.8433 20° North 253 291 7,900 -1,380 Descending Aus ATC (RADAR)
04:51AM -30.6028 152.8707 20° North 248 285 6,500 -1,320 Descending Aus ATC (RADAR)
04:52AM -30.5595 152.8887 20° North 218 251 5,600 -1,140 Descending Aus ATC (RADAR)
04:53AM -30.5321 152.9093 33° Northeast 205 236 5,000 -1,080 Descending Aus ATC (RADAR)
04:54AM -30.5002 152.9453 44° Northeast 212 244 4,200 -1,140 Descending Aus ATC (RADAR)
04:55AM -30.4600 152.9864 41° Northeast 188 216 3,100 -1,020 Descending Aus ATC (RADAR)
04:56AM -30.4234 153.0185 37° Northeast 167 192 2,300 -780 Descending Aus ATC (RADAR)
04:57AM -30.3893 153.0589 46° Northeast 219 252 1,400 -720 Descending Aus ATC (RADAR)